sensor_id;sensor_type;location;lat;lon;timestamp;temperature;humidity
57434;DHT22;43277;52.672;6.984;2024-03-22T00:01:47;10.50;99.90
57434;DHT22;43277;52.672;6.984;2024-03-22T00:04:14;10.60;99.90
57434;DHT22;43277;52.672;6.984;2024-03-22T00:06:41;10.40;99.90
57434;DHT22;43277;52.672;6.984;2024-03-22T00:09:07;10.30;99.90
57434;DHT22;43277;52.672;6.984;2024-03-22T00:11:33;10.40;99.90
57434;DHT22;43277;52.672;6.984;2024-03-22T00:13:58;10.40;99.90
57434;DHT22;43277;52.672;6.984;2024-03-22T00:16:24;10.40;99.90
57434;DHT22;43277;52.672;6.984;2024-03-22T00:18:50;10.50;99.90
57434;DHT22;43277;52.672;6.984;2024-03-22T00:21:15;10.50;99.90
57434;DHT22;43277;52.672;6.984;2024-03-22T00:23:41;10.60;99.90
57434;DHT22;43277;52.672;6.984;2024-03-22T00:26:07;10.60;99.90
57434;DHT22;43277;52.672;6.984;2024-03-22T00:28:32;10.60;99.90
57434;DHT22;43277;52.672;6.984;2024-03-22T00:30:58;10.70;99.90
57434;DHT22;43277;52.672;6.984;2024-03-22T00:33:24;10.60;99.90
57434;DHT22;43277;52.672;6.984;2024-03-22T00:35:50;10.70;99.90
57434;DHT22;43277;52.672;6.984;2024-03-22T00:38:15;10.60;99.90
57434;DHT22;43277;52.672;6.984;2024-03-22T00:40:42;10.60;99.90
57434;DHT22;43277;52.672;6.984;2024-03-22T00:43:07;10.70;99.90
57434;DHT22;43277;52.672;6.984;2024-03-22T00:45:33;10.80;99.90
57434;DHT22;43277;52.672;6.984;2024-03-22T00:47:58;10.70;99.90
57434;DHT22;43277;52.672;6.984;2024-03-22T00:50:24;10.70;99.90
57434;DHT22;43277;52.672;6.984;2024-03-22T00:52:53;10.80;99.90
57434;DHT22;43277;52.672;6.984;2024-03-22T00:55:21;10.70;99.90
57434;DHT22;43277;52.672;6.984;2024-03-22T00:57:46;10.70;99.90
57434;DHT22;43277;52.672;6.984;2024-03-22T01:00:12;10.70;99.90
57434;DHT22;43277;52.672;6.984;2024-03-22T01:02:39;10.80;99.90
57434;DHT22;43277;52.672;6.984;2024-03-22T01:05:04;10.80;99.90
57434;DHT22;43277;52.672;6.984;2024-03-22T01:07:30;10.80;99.90
57434;DHT22;43277;52.672;6.984;2024-03-22T01:09:55;10.70;99.90
57434;DHT22;43277;52.672;6.984;2024-03-22T01:12:21;10.80;99.90
57434;DHT22;43277;52.672;6.984;2024-03-22T01:14:47;10.80;99.90
57434;DHT22;43277;52.672;6.984;2024-03-22T01:17:12;10.80;99.90
57434;DHT22;43277;52.672;6.984;2024-03-22T01:19:38;10.90;99.90
57434;DHT22;43277;52.672;6.984;2024-03-22T01:22:04;10.80;99.90
57434;DHT22;43277;52.672;6.984;2024-03-22T01:24:29;10.90;99.90
57434;DHT22;43277;52.672;6.984;2024-03-22T01:26:55;10.90;99.90
57434;DHT22;43277;52.672;6.984;2024-03-22T01:29:21;10.80;99.90
57434;DHT22;43277;52.672;6.984;2024-03-22T01:31:47;10.90;99.90
57434;DHT22;43277;52.672;6.984;2024-03-22T01:34:13;10.90;99.90
57434;DHT22;43277;52.672;6.984;2024-03-22T01:36:39;10.80;99.90
57434;DHT22;43277;52.672;6.984;2024-03-22T01:39:04;10.90;99.90
57434;DHT22;43277;52.672;6.984;2024-03-22T01:41:30;10.90;99.90
57434;DHT22;43277;52.672;6.984;2024-03-22T01:43:56;10.80;99.90
57434;DHT22;43277;52.672;6.984;2024-03-22T01:46:21;10.80;99.90
57434;DHT22;43277;52.672;6.984;2024-03-22T01:48:47;10.90;99.90
57434;DHT22;43277;52.672;6.984;2024-03-22T01:51:13;11.00;99.90
57434;DHT22;43277;52.672;6.984;2024-03-22T01:53:39;10.90;99.90
57434;DHT22;43277;52.672;6.984;2024-03-22T01:56:06;10.90;99.90
57434;DHT22;43277;52.672;6.984;2024-03-22T01:58:32;10.90;99.90
57434;DHT22;43277;52.672;6.984;2024-03-22T02:00:58;11.00;99.90
57434;DHT22;43277;52.672;6.984;2024-03-22T02:03:24;10.90;99.90
57434;DHT22;43277;52.672;6.984;2024-03-22T02:05:49;10.90;99.90
57434;DHT22;43277;52.672;6.984;2024-03-22T02:08:15;10.90;99.90
57434;DHT22;43277;52.672;6.984;2024-03-22T02:10:41;11.00;99.90
57434;DHT22;43277;52.672;6.984;2024-03-22T02:13:06;10.90;99.90
57434;DHT22;43277;52.672;6.984;2024-03-22T02:15:32;10.90;99.90
57434;DHT22;43277;52.672;6.984;2024-03-22T02:17:58;10.90;99.90
57434;DHT22;43277;52.672;6.984;2024-03-22T02:20:24;11.00;99.90
57434;DHT22;43277;52.672;6.984;2024-03-22T02:22:49;11.00;99.90
57434;DHT22;43277;52.672;6.984;2024-03-22T02:25:15;11.10;99.90
57434;DHT22;43277;52.672;6.984;2024-03-22T02:27:41;11.00;99.90
57434;DHT22;43277;52.672;6.984;2024-03-22T02:30:07;11.10;99.90
57434;DHT22;43277;52.672;6.984;2024-03-22T02:32:33;11.00;99.90
57434;DHT22;43277;52.672;6.984;2024-03-22T02:34:58;11.00;99.90
57434;DHT22;43277;52.672;6.984;2024-03-22T02:37:24;11.10;99.90
57434;DHT22;43277;52.672;6.984;2024-03-22T02:39:50;11.00;99.90
57434;DHT22;43277;52.672;6.984;2024-03-22T02:42:15;11.10;99.90
57434;DHT22;43277;52.672;6.984;2024-03-22T02:44:41;11.10;99.90
57434;DHT22;43277;52.672;6.984;2024-03-22T02:47:10;11.00;99.90
57434;DHT22;43277;52.672;6.984;2024-03-22T02:49:36;11.00;99.90
57434;DHT22;43277;52.672;6.984;2024-03-22T02:52:01;11.00;99.90
57434;DHT22;43277;52.672;6.984;2024-03-22T02:54:27;11.00;99.90
57434;DHT22;43277;52.672;6.984;2024-03-22T02:56:53;10.90;99.90
57434;DHT22;43277;52.672;6.984;2024-03-22T02:59:18;11.10;99.90
57434;DHT22;43277;52.672;6.984;2024-03-22T03:01:44;11.10;99.90
57434;DHT22;43277;52.672;6.984;2024-03-22T03:04:09;11.10;99.90
57434;DHT22;43277;52.672;6.984;2024-03-22T03:06:35;11.10;99.90
57434;DHT22;43277;52.672;6.984;2024-03-22T03:09:00;11.10;99.90
57434;DHT22;43277;52.672;6.984;2024-03-22T03:11:26;11.10;99.90
57434;DHT22;43277;52.672;6.984;2024-03-22T03:13:52;11.00;99.90
57434;DHT22;43277;52.672;6.984;2024-03-22T03:16:17;11.10;99.90
57434;DHT22;43277;52.672;6.984;2024-03-22T03:18:43;11.10;99.90
57434;DHT22;43277;52.672;6.984;2024-03-22T03:21:09;11.10;99.90
57434;DHT22;43277;52.672;6.984;2024-03-22T03:23:34;11.10;99.90
57434;DHT22;43277;52.672;6.984;2024-03-22T03:26:00;11.20;99.90
57434;DHT22;43277;52.672;6.984;2024-03-22T03:28:26;11.10;99.90
57434;DHT22;43277;52.672;6.984;2024-03-22T03:30:52;11.20;99.90
57434;DHT22;43277;52.672;6.984;2024-03-22T03:33:18;11.10;99.90
57434;DHT22;43277;52.672;6.984;2024-03-22T03:35:47;11.20;99.90
57434;DHT22;43277;52.672;6.984;2024-03-22T03:38:13;11.10;99.90
57434;DHT22;43277;52.672;6.984;2024-03-22T03:40:38;11.10;99.90
57434;DHT22;43277;52.672;6.984;2024-03-22T03:43:04;11.10;99.90
57434;DHT22;43277;52.672;6.984;2024-03-22T03:45:30;11.20;99.90
57434;DHT22;43277;52.672;6.984;2024-03-22T03:47:55;11.10;99.90
57434;DHT22;43277;52.672;6.984;2024-03-22T03:50:21;11.20;99.90
57434;DHT22;43277;52.672;6.984;2024-03-22T03:52:46;11.20;99.90
57434;DHT22;43277;52.672;6.984;2024-03-22T03:55:12;11.20;99.90
57434;DHT22;43277;52.672;6.984;2024-03-22T03:57:37;11.20;99.90
57434;DHT22;43277;52.672;6.984;2024-03-22T04:00:03;11.30;99.90
57434;DHT22;43277;52.672;6.984;2024-03-22T04:02:29;11.30;99.90
57434;DHT22;43277;52.672;6.984;2024-03-22T04:04:55;11.40;99.90
57434;DHT22;43277;52.672;6.984;2024-03-22T04:07:21;11.40;99.90
57434;DHT22;43277;52.672;6.984;2024-03-22T04:09:47;11.50;99.90
57434;DHT22;43277;52.672;6.984;2024-03-22T04:12:12;11.40;99.90
57434;DHT22;43277;52.672;6.984;2024-03-22T04:14:38;11.40;99.90
57434;DHT22;43277;52.672;6.984;2024-03-22T04:17:04;11.30;99.90
57434;DHT22;43277;52.672;6.984;2024-03-22T04:19:30;11.40;99.90
57434;DHT22;43277;52.672;6.984;2024-03-22T04:21:55;11.30;99.90
57434;DHT22;43277;52.672;6.984;2024-03-22T04:24:21;11.30;99.90
57434;DHT22;43277;52.672;6.984;2024-03-22T04:26:47;11.30;99.90
57434;DHT22;43277;52.672;6.984;2024-03-22T04:29:12;11.40;99.90
57434;DHT22;43277;52.672;6.984;2024-03-22T04:31:38;11.50;99.90
57434;DHT22;43277;52.672;6.984;2024-03-22T04:34:03;11.40;99.90
57434;DHT22;43277;52.672;6.984;2024-03-22T04:36:31;11.40;99.90
57434;DHT22;43277;52.672;6.984;2024-03-22T04:38:57;11.40;99.90
57434;DHT22;43277;52.672;6.984;2024-03-22T04:41:22;11.40;99.90
57434;DHT22;43277;52.672;6.984;2024-03-22T04:43:48;11.40;99.90
57434;DHT22;43277;52.672;6.984;2024-03-22T04:46:13;11.30;99.90
57434;DHT22;43277;52.672;6.984;2024-03-22T04:48:39;11.50;99.90
57434;DHT22;43277;52.672;6.984;2024-03-22T04:51:05;11.40;99.90
57434;DHT22;43277;52.672;6.984;2024-03-22T04:53:30;11.40;99.90
57434;DHT22;43277;52.672;6.984;2024-03-22T04:55:56;11.40;99.90
57434;DHT22;43277;52.672;6.984;2024-03-22T04:58:22;11.40;99.90
57434;DHT22;43277;52.672;6.984;2024-03-22T05:00:48;11.40;99.90
57434;DHT22;43277;52.672;6.984;2024-03-22T05:03:14;11.40;99.90
57434;DHT22;43277;52.672;6.984;2024-03-22T05:05:42;11.50;99.90
57434;DHT22;43277;52.672;6.984;2024-03-22T05:08:08;11.40;99.90
57434;DHT22;43277;52.672;6.984;2024-03-22T05:10:34;11.30;99.90
57434;DHT22;43277;52.672;6.984;2024-03-22T05:13:00;11.30;99.90
57434;DHT22;43277;52.672;6.984;2024-03-22T05:15:26;11.40;99.90
57434;DHT22;43277;52.672;6.984;2024-03-22T05:17:53;11.40;99.90
57434;DHT22;43277;52.672;6.984;2024-03-22T05:20:19;11.40;99.90
57434;DHT22;43277;52.672;6.984;2024-03-22T05:22:45;11.40;99.90
57434;DHT22;43277;52.672;6.984;2024-03-22T05:25:11;11.40;99.90
57434;DHT22;43277;52.672;6.984;2024-03-22T05:27:38;11.50;99.90
57434;DHT22;43277;52.672;6.984;2024-03-22T05:30:04;11.50;99.90
57434;DHT22;43277;52.672;6.984;2024-03-22T05:32:30;11.40;99.90
57434;DHT22;43277;52.672;6.984;2024-03-22T05:34:55;11.50;99.90
57434;DHT22;43277;52.672;6.984;2024-03-22T05:37:22;11.40;99.90
57434;DHT22;43277;52.672;6.984;2024-03-22T05:39:47;11.50;99.90
57434;DHT22;43277;52.672;6.984;2024-03-22T05:42:13;11.30;99.90
57434;DHT22;43277;52.672;6.984;2024-03-22T05:44:39;11.40;99.90
57434;DHT22;43277;52.672;6.984;2024-03-22T05:47:04;11.40;99.90
57434;DHT22;43277;52.672;6.984;2024-03-22T05:49:30;11.40;99.90
57434;DHT22;43277;52.672;6.984;2024-03-22T05:51:56;11.40;99.90
57434;DHT22;43277;52.672;6.984;2024-03-22T05:54:21;11.40;99.90
57434;DHT22;43277;52.672;6.984;2024-03-22T05:56:47;11.40;99.90
57434;DHT22;43277;52.672;6.984;2024-03-22T05:59:13;11.40;99.90
57434;DHT22;43277;52.672;6.984;2024-03-22T06:01:38;11.40;99.90
57434;DHT22;43277;52.672;6.984;2024-03-22T06:04:05;11.50;99.90
57434;DHT22;43277;52.672;6.984;2024-03-22T06:06:34;11.60;99.90
57434;DHT22;43277;52.672;6.984;2024-03-22T06:09:00;11.60;99.90
57434;DHT22;43277;52.672;6.984;2024-03-22T06:11:29;11.50;99.90
57434;DHT22;43277;52.672;6.984;2024-03-22T06:13:55;11.40;99.90
57434;DHT22;43277;52.672;6.984;2024-03-22T06:16:20;11.50;99.90
57434;DHT22;43277;52.672;6.984;2024-03-22T06:18:46;11.40;99.90
57434;DHT22;43277;52.672;6.984;2024-03-22T06:21:12;11.40;99.90
57434;DHT22;43277;52.672;6.984;2024-03-22T06:23:40;11.40;99.90
57434;DHT22;43277;52.672;6.984;2024-03-22T06:26:05;11.40;99.90
57434;DHT22;43277;52.672;6.984;2024-03-22T06:28:31;11.30;99.90
57434;DHT22;43277;52.672;6.984;2024-03-22T06:30:56;11.30;99.90
57434;DHT22;43277;52.672;6.984;2024-03-22T06:33:22;11.30;99.90
57434;DHT22;43277;52.672;6.984;2024-03-22T06:35:48;11.30;99.90
57434;DHT22;43277;52.672;6.984;2024-03-22T06:38:13;11.30;99.90
57434;DHT22;43277;52.672;6.984;2024-03-22T06:40:39;11.30;99.90
57434;DHT22;43277;52.672;6.984;2024-03-22T06:43:05;11.40;99.90
57434;DHT22;43277;52.672;6.984;2024-03-22T06:45:30;11.30;99.90
57434;DHT22;43277;52.672;6.984;2024-03-22T06:47:56;11.20;99.90
57434;DHT22;43277;52.672;6.984;2024-03-22T06:50:21;11.30;99.90
57434;DHT22;43277;52.672;6.984;2024-03-22T06:52:54;11.30;99.90
57434;DHT22;43277;52.672;6.984;2024-03-22T06:55:20;11.20;99.90
57434;DHT22;43277;52.672;6.984;2024-03-22T06:57:47;11.30;99.90
57434;DHT22;43277;52.672;6.984;2024-03-22T07:00:14;11.20;99.90
57434;DHT22;43277;52.672;6.984;2024-03-22T07:02:40;11.20;99.90
57434;DHT22;43277;52.672;6.984;2024-03-22T07:05:09;11.20;99.90
57434;DHT22;43277;52.672;6.984;2024-03-22T07:07:35;11.20;99.90
57434;DHT22;43277;52.672;6.984;2024-03-22T07:10:01;11.20;99.90
57434;DHT22;43277;52.672;6.984;2024-03-22T07:12:27;11.20;99.90
57434;DHT22;43277;52.672;6.984;2024-03-22T07:14:53;11.20;99.90
57434;DHT22;43277;52.672;6.984;2024-03-22T07:17:19;11.20;99.90
57434;DHT22;43277;52.672;6.984;2024-03-22T07:19:52;11.30;99.90
57434;DHT22;43277;52.672;6.984;2024-03-22T07:22:18;11.30;99.90
57434;DHT22;43277;52.672;6.984;2024-03-22T07:24:44;11.20;99.90
57434;DHT22;43277;52.672;6.984;2024-03-22T07:27:10;11.30;99.90
57434;DHT22;43277;52.672;6.984;2024-03-22T07:29:36;11.10;99.90
57434;DHT22;43277;52.672;6.984;2024-03-22T07:32:02;11.20;99.90
57434;DHT22;43277;52.672;6.984;2024-03-22T07:34:28;11.30;99.90
57434;DHT22;43277;52.672;6.984;2024-03-22T07:36:54;11.20;99.90
57434;DHT22;43277;52.672;6.984;2024-03-22T07:39:20;11.10;99.90
57434;DHT22;43277;52.672;6.984;2024-03-22T07:41:45;11.00;99.90
57434;DHT22;43277;52.672;6.984;2024-03-22T07:44:11;11.00;99.90
57434;DHT22;43277;52.672;6.984;2024-03-22T07:46:36;11.00;99.90
57434;DHT22;43277;52.672;6.984;2024-03-22T07:49:02;11.10;99.90
57434;DHT22;43277;52.672;6.984;2024-03-22T07:51:30;11.00;99.90
57434;DHT22;43277;52.672;6.984;2024-03-22T07:53:55;11.10;99.90
57434;DHT22;43277;52.672;6.984;2024-03-22T07:56:21;11.20;99.90
57434;DHT22;43277;52.672;6.984;2024-03-22T07:58:47;11.10;99.90
57434;DHT22;43277;52.672;6.984;2024-03-22T08:01:13;11.20;99.90
57434;DHT22;43277;52.672;6.984;2024-03-22T08:03:38;11.10;99.90
57434;DHT22;43277;52.672;6.984;2024-03-22T08:06:04;11.20;99.90
57434;DHT22;43277;52.672;6.984;2024-03-22T08:08:30;11.30;99.90
57434;DHT22;43277;52.672;6.984;2024-03-22T08:10:55;11.30;99.90
57434;DHT22;43277;52.672;6.984;2024-03-22T08:13:21;11.30;99.90
57434;DHT22;43277;52.672;6.984;2024-03-22T08:15:47;11.30;99.90
57434;DHT22;43277;52.672;6.984;2024-03-22T08:18:12;11.30;99.90
57434;DHT22;43277;52.672;6.984;2024-03-22T08:20:38;11.30;99.90
57434;DHT22;43277;52.672;6.984;2024-03-22T08:23:05;11.30;99.90
57434;DHT22;43277;52.672;6.984;2024-03-22T08:25:30;11.20;99.90
57434;DHT22;43277;52.672;6.984;2024-03-22T08:27:57;11.30;99.90
57434;DHT22;43277;52.672;6.984;2024-03-22T08:30:23;11.30;99.90
57434;DHT22;43277;52.672;6.984;2024-03-22T08:32:49;11.30;99.90
57434;DHT22;43277;52.672;6.984;2024-03-22T08:35:15;11.30;99.90
57434;DHT22;43277;52.672;6.984;2024-03-22T08:37:41;11.40;99.90
57434;DHT22;43277;52.672;6.984;2024-03-22T08:40:07;11.40;99.90
57434;DHT22;43277;52.672;6.984;2024-03-22T08:42:32;11.30;99.90
57434;DHT22;43277;52.672;6.984;2024-03-22T08:44:58;11.40;99.90
57434;DHT22;43277;52.672;6.984;2024-03-22T08:47:24;11.20;99.90
57434;DHT22;43277;52.672;6.984;2024-03-22T08:49:49;11.30;99.90
57434;DHT22;43277;52.672;6.984;2024-03-22T08:52:15;11.40;99.90
57434;DHT22;43277;52.672;6.984;2024-03-22T08:54:41;11.30;99.90
57434;DHT22;43277;52.672;6.984;2024-03-22T08:57:06;11.30;99.90
57434;DHT22;43277;52.672;6.984;2024-03-22T08:59:32;11.40;99.90
57434;DHT22;43277;52.672;6.984;2024-03-22T09:01:58;11.40;99.90
57434;DHT22;43277;52.672;6.984;2024-03-22T09:04:25;11.40;99.90
57434;DHT22;43277;52.672;6.984;2024-03-22T09:06:50;11.30;99.90
57434;DHT22;43277;52.672;6.984;2024-03-22T09:09:16;11.50;99.90
57434;DHT22;43277;52.672;6.984;2024-03-22T09:11:42;11.40;99.90
57434;DHT22;43277;52.672;6.984;2024-03-22T09:14:08;11.40;99.90
57434;DHT22;43277;52.672;6.984;2024-03-22T09:16:33;11.40;99.90
57434;DHT22;43277;52.672;6.984;2024-03-22T09:18:59;11.40;99.90
57434;DHT22;43277;52.672;6.984;2024-03-22T09:21:25;11.30;99.90
57434;DHT22;43277;52.672;6.984;2024-03-22T09:23:53;11.20;99.90
57434;DHT22;43277;52.672;6.984;2024-03-22T09:26:18;11.30;99.90
57434;DHT22;43277;52.672;6.984;2024-03-22T09:28:48;11.20;99.90
57434;DHT22;43277;52.672;6.984;2024-03-22T09:31:13;11.30;99.90
57434;DHT22;43277;52.672;6.984;2024-03-22T09:33:39;11.30;99.90
57434;DHT22;43277;52.672;6.984;2024-03-22T09:36:05;11.30;99.90
57434;DHT22;43277;52.672;6.984;2024-03-22T09:38:30;11.20;99.90
57434;DHT22;43277;52.672;6.984;2024-03-22T09:40:56;11.20;99.90
57434;DHT22;43277;52.672;6.984;2024-03-22T09:43:22;11.20;99.90
57434;DHT22;43277;52.672;6.984;2024-03-22T09:45:49;11.10;99.90
57434;DHT22;43277;52.672;6.984;2024-03-22T09:48:17;11.00;99.90
57434;DHT22;43277;52.672;6.984;2024-03-22T09:50:46;10.90;99.90
57434;DHT22;43277;52.672;6.984;2024-03-22T09:53:13;10.90;99.90
57434;DHT22;43277;52.672;6.984;2024-03-22T09:55:39;10.90;99.90
57434;DHT22;43277;52.672;6.984;2024-03-22T09:58:09;10.90;99.90
57434;DHT22;43277;52.672;6.984;2024-03-22T10:00:35;10.90;99.90
57434;DHT22;43277;52.672;6.984;2024-03-22T10:03:01;10.80;99.90
57434;DHT22;43277;52.672;6.984;2024-03-22T10:05:27;10.80;99.90
57434;DHT22;43277;52.672;6.984;2024-03-22T10:07:53;10.90;99.90
57434;DHT22;43277;52.672;6.984;2024-03-22T10:10:19;10.80;99.90
57434;DHT22;43277;52.672;6.984;2024-03-22T10:12:45;10.80;99.90
57434;DHT22;43277;52.672;6.984;2024-03-22T10:15:10;10.80;99.90
57434;DHT22;43277;52.672;6.984;2024-03-22T10:17:38;10.80;99.90
57434;DHT22;43277;52.672;6.984;2024-03-22T10:20:05;10.70;99.90
57434;DHT22;43277;52.672;6.984;2024-03-22T10:22:53;10.70;99.90
57434;DHT22;43277;52.672;6.984;2024-03-22T10:25:20;10.70;99.90
57434;DHT22;43277;52.672;6.984;2024-03-22T10:27:47;10.70;99.90
57434;DHT22;43277;52.672;6.984;2024-03-22T10:30:15;10.70;99.90
57434;DHT22;43277;52.672;6.984;2024-03-22T10:32:44;10.90;99.90
57434;DHT22;43277;52.672;6.984;2024-03-22T10:35:14;10.70;99.90
57434;DHT22;43277;52.672;6.984;2024-03-22T10:37:40;10.70;99.90
57434;DHT22;43277;52.672;6.984;2024-03-22T10:40:06;10.80;99.90
57434;DHT22;43277;52.672;6.984;2024-03-22T10:42:34;10.80;99.90
57434;DHT22;43277;52.672;6.984;2024-03-22T10:45:00;10.80;99.90
57434;DHT22;43277;52.672;6.984;2024-03-22T10:47:30;10.80;99.90
57434;DHT22;43277;52.672;6.984;2024-03-22T10:52:59;10.80;99.90
57434;DHT22;43277;52.672;6.984;2024-03-22T10:55:42;10.80;99.90
57434;DHT22;43277;52.672;6.984;2024-03-22T10:58:18;10.90;99.90
57434;DHT22;43277;52.672;6.984;2024-03-22T11:00:46;10.90;99.90
57434;DHT22;43277;52.672;6.984;2024-03-22T11:03:15;10.90;99.90
57434;DHT22;43277;52.672;6.984;2024-03-22T11:05:47;11.00;99.90
57434;DHT22;43277;52.672;6.984;2024-03-22T11:08:13;10.90;99.90
57434;DHT22;43277;52.672;6.984;2024-03-22T11:10:47;10.90;99.90
57434;DHT22;43277;52.672;6.984;2024-03-22T11:13:16;10.90;99.90
57434;DHT22;43277;52.672;6.984;2024-03-22T11:15:42;10.90;99.90
57434;DHT22;43277;52.672;6.984;2024-03-22T11:18:08;10.90;99.90
57434;DHT22;43277;52.672;6.984;2024-03-22T11:20:37;10.80;99.90
57434;DHT22;43277;52.672;6.984;2024-03-22T11:23:07;10.90;99.90
57434;DHT22;43277;52.672;6.984;2024-03-22T11:25:33;10.90;99.90
57434;DHT22;43277;52.672;6.984;2024-03-22T11:27:59;10.90;99.90
57434;DHT22;43277;52.672;6.984;2024-03-22T11:30:29;11.00;99.90
57434;DHT22;43277;52.672;6.984;2024-03-22T11:32:56;11.00;99.90
57434;DHT22;43277;52.672;6.984;2024-03-22T11:35:22;10.90;99.90
57434;DHT22;43277;52.672;6.984;2024-03-22T11:37:50;10.80;99.90
57434;DHT22;43277;52.672;6.984;2024-03-22T11:40:16;10.90;99.90
57434;DHT22;43277;52.672;6.984;2024-03-22T11:42:47;10.80;99.90
57434;DHT22;43277;52.672;6.984;2024-03-22T11:45:15;10.90;99.90
57434;DHT22;43277;52.672;6.984;2024-03-22T11:47:43;10.90;99.90
57434;DHT22;43277;52.672;6.984;2024-03-22T11:50:11;10.80;99.90
57434;DHT22;43277;52.672;6.984;2024-03-22T11:52:43;10.80;99.90
57434;DHT22;43277;52.672;6.984;2024-03-22T11:55:10;10.70;99.90
57434;DHT22;43277;52.672;6.984;2024-03-22T11:57:36;10.90;99.90
57434;DHT22;43277;52.672;6.984;2024-03-22T12:00:03;10.90;99.90
57434;DHT22;43277;52.672;6.984;2024-03-22T12:02:33;10.90;99.90
57434;DHT22;43277;52.672;6.984;2024-03-22T12:05:00;10.90;99.90
57434;DHT22;43277;52.672;6.984;2024-03-22T12:07:26;11.00;99.90
57434;DHT22;43277;52.672;6.984;2024-03-22T12:09:53;11.10;99.90
57434;DHT22;43277;52.672;6.984;2024-03-22T12:12:21;11.00;99.90
57434;DHT22;43277;52.672;6.984;2024-03-22T12:14:47;11.00;99.90
57434;DHT22;43277;52.672;6.984;2024-03-22T12:17:12;11.00;99.90
57434;DHT22;43277;52.672;6.984;2024-03-22T12:19:38;11.00;99.90
57434;DHT22;43277;52.672;6.984;2024-03-22T12:22:04;11.00;99.90
57434;DHT22;43277;52.672;6.984;2024-03-22T12:24:32;11.10;99.90
57434;DHT22;43277;52.672;6.984;2024-03-22T12:26:57;11.10;99.90
57434;DHT22;43277;52.672;6.984;2024-03-22T12:29:23;11.20;99.90
57434;DHT22;43277;52.672;6.984;2024-03-22T12:31:49;11.20;99.90
57434;DHT22;43277;52.672;6.984;2024-03-22T12:34:15;11.00;99.90
57434;DHT22;43277;52.672;6.984;2024-03-22T12:36:42;11.10;99.90
57434;DHT22;43277;52.672;6.984;2024-03-22T12:39:08;11.10;99.90
57434;DHT22;43277;52.672;6.984;2024-03-22T12:41:33;11.10;99.90
57434;DHT22;43277;52.672;6.984;2024-03-22T12:44:00;11.10;99.90
57434;DHT22;43277;52.672;6.984;2024-03-22T12:46:26;11.10;99.90
57434;DHT22;43277;52.672;6.984;2024-03-22T12:48:52;11.20;99.90
57434;DHT22;43277;52.672;6.984;2024-03-22T12:51:18;11.20;99.90
57434;DHT22;43277;52.672;6.984;2024-03-22T12:53:44;11.10;99.90
57434;DHT22;43277;52.672;6.984;2024-03-22T12:56:11;11.10;99.90
57434;DHT22;43277;52.672;6.984;2024-03-22T12:58:37;11.20;99.90
57434;DHT22;43277;52.672;6.984;2024-03-22T13:01:04;11.20;99.90
57434;DHT22;43277;52.672;6.984;2024-03-22T13:03:32;11.20;99.90
57434;DHT22;43277;52.672;6.984;2024-03-22T13:05:57;11.40;99.90
57434;DHT22;43277;52.672;6.984;2024-03-22T13:08:23;11.30;99.90
57434;DHT22;43277;52.672;6.984;2024-03-22T13:10:49;11.30;99.90
57434;DHT22;43277;52.672;6.984;2024-03-22T13:13:14;11.40;99.90
57434;DHT22;43277;52.672;6.984;2024-03-22T13:15:42;11.50;99.90
57434;DHT22;43277;52.672;6.984;2024-03-22T13:18:08;11.50;99.90
57434;DHT22;43277;52.672;6.984;2024-03-22T13:20:37;11.50;99.90
57434;DHT22;43277;52.672;6.984;2024-03-22T13:23:03;11.60;99.90
57434;DHT22;43277;52.672;6.984;2024-03-22T13:25:28;11.50;99.90
57434;DHT22;43277;52.672;6.984;2024-03-22T13:27:54;11.50;99.90
57434;DHT22;43277;52.672;6.984;2024-03-22T13:30:20;11.50;99.90
57434;DHT22;43277;52.672;6.984;2024-03-22T13:32:45;11.60;99.90
57434;DHT22;43277;52.672;6.984;2024-03-22T13:35:11;11.50;99.90
57434;DHT22;43277;52.672;6.984;2024-03-22T13:37:37;11.60;99.90
57434;DHT22;43277;52.672;6.984;2024-03-22T13:40:02;11.50;99.90
57434;DHT22;43277;52.672;6.984;2024-03-22T13:42:29;11.40;99.90
57434;DHT22;43277;52.672;6.984;2024-03-22T13:44:55;11.40;99.90
57434;DHT22;43277;52.672;6.984;2024-03-22T13:47:22;11.40;99.90
57434;DHT22;43277;52.672;6.984;2024-03-22T13:49:48;11.30;99.90
57434;DHT22;43277;52.672;6.984;2024-03-22T13:52:14;11.20;99.90
57434;DHT22;43277;52.672;6.984;2024-03-22T13:54:40;11.20;99.90
57434;DHT22;43277;52.672;6.984;2024-03-22T13:57:06;11.10;99.90
57434;DHT22;43277;52.672;6.984;2024-03-22T13:59:31;11.00;99.90
57434;DHT22;43277;52.672;6.984;2024-03-22T14:02:00;10.80;99.90
57434;DHT22;43277;52.672;6.984;2024-03-22T14:04:26;10.70;99.90
57434;DHT22;43277;52.672;6.984;2024-03-22T14:06:52;10.60;99.90
57434;DHT22;43277;52.672;6.984;2024-03-22T14:09:18;10.60;99.90
57434;DHT22;43277;52.672;6.984;2024-03-22T14:11:44;10.40;99.90
57434;DHT22;43277;52.672;6.984;2024-03-22T14:14:10;10.30;99.90
57434;DHT22;43277;52.672;6.984;2024-03-22T14:16:40;10.20;99.90
57434;DHT22;43277;52.672;6.984;2024-03-22T14:19:06;10.10;99.90
57434;DHT22;43277;52.672;6.984;2024-03-22T14:21:32;10.00;99.90
57434;DHT22;43277;52.672;6.984;2024-03-22T14:23:58;10.00;99.90
57434;DHT22;43277;52.672;6.984;2024-03-22T14:26:23;9.90;99.90
57434;DHT22;43277;52.672;6.984;2024-03-22T14:28:49;9.90;99.90
57434;DHT22;43277;52.672;6.984;2024-03-22T14:31:16;9.80;99.90
57434;DHT22;43277;52.672;6.984;2024-03-22T14:33:42;9.90;99.90
57434;DHT22;43277;52.672;6.984;2024-03-22T14:36:08;9.80;99.90
57434;DHT22;43277;52.672;6.984;2024-03-22T14:38:35;9.80;99.90
57434;DHT22;43277;52.672;6.984;2024-03-22T14:41:01;9.80;99.90
57434;DHT22;43277;52.672;6.984;2024-03-22T14:43:27;9.90;99.90
57434;DHT22;43277;52.672;6.984;2024-03-22T14:45:53;9.80;99.90
57434;DHT22;43277;52.672;6.984;2024-03-22T14:48:22;9.80;99.90
57434;DHT22;43277;52.672;6.984;2024-03-22T14:50:48;9.80;99.90
57434;DHT22;43277;52.672;6.984;2024-03-22T14:53:15;9.90;99.90
57434;DHT22;43277;52.672;6.984;2024-03-22T14:55:55;9.90;99.90
57434;DHT22;43277;52.672;6.984;2024-03-22T14:58:24;10.00;99.90
57434;DHT22;43277;52.672;6.984;2024-03-22T15:00:57;10.00;99.90
57434;DHT22;43277;52.672;6.984;2024-03-22T15:03:23;10.00;99.90
57434;DHT22;43277;52.672;6.984;2024-03-22T15:05:54;10.00;99.90
57434;DHT22;43277;52.672;6.984;2024-03-22T15:08:20;10.10;99.90
57434;DHT22;43277;52.672;6.984;2024-03-22T15:10:47;10.00;99.90
57434;DHT22;43277;52.672;6.984;2024-03-22T15:13:15;10.00;99.90
57434;DHT22;43277;52.672;6.984;2024-03-22T15:15:42;10.10;99.90
57434;DHT22;43277;52.672;6.984;2024-03-22T15:18:09;10.10;99.90
57434;DHT22;43277;52.672;6.984;2024-03-22T15:20:36;10.10;99.90
57434;DHT22;43277;52.672;6.984;2024-03-22T15:23:02;10.10;99.90
57434;DHT22;43277;52.672;6.984;2024-03-22T15:25:29;10.20;99.90
57434;DHT22;43277;52.672;6.984;2024-03-22T15:27:55;10.20;99.90
57434;DHT22;43277;52.672;6.984;2024-03-22T15:30:21;10.20;99.90